sensor_id;sensor_type;location;lat;lon;timestamp;temperature;humidity
20574;DHT22;10445;50.216;7.912;2023-08-08T00:01:56;12.20;99.90
20574;DHT22;10445;50.216;7.912;2023-08-08T00:04:25;12.20;99.90
20574;DHT22;10445;50.216;7.912;2023-08-08T00:06:53;12.20;99.90
20574;DHT22;10445;50.216;7.912;2023-08-08T00:09:22;12.10;99.90
20574;DHT22;10445;50.216;7.912;2023-08-08T00:11:50;12.10;99.90
20574;DHT22;10445;50.216;7.912;2023-08-08T00:14:19;12.10;99.90
20574;DHT22;10445;50.216;7.912;2023-08-08T00:16:47;12.10;99.90
20574;DHT22;10445;50.216;7.912;2023-08-08T00:19:17;12.00;99.90
20574;DHT22;10445;50.216;7.912;2023-08-08T00:21:45;12.00;99.90
20574;DHT22;10445;50.216;7.912;2023-08-08T00:24:14;12.00;99.90
20574;DHT22;10445;50.216;7.912;2023-08-08T00:26:42;11.90;99.90
20574;DHT22;10445;50.216;7.912;2023-08-08T00:29:11;11.90;99.90
20574;DHT22;10445;50.216;7.912;2023-08-08T00:31:39;11.90;99.90
20574;DHT22;10445;50.216;7.912;2023-08-08T00:34:08;11.80;99.90
20574;DHT22;10445;50.216;7.912;2023-08-08T00:36:37;11.80;99.90
20574;DHT22;10445;50.216;7.912;2023-08-08T00:39:06;11.80;99.90
20574;DHT22;10445;50.216;7.912;2023-08-08T00:41:35;11.80;99.90
20574;DHT22;10445;50.216;7.912;2023-08-08T00:44:03;11.80;99.90
20574;DHT22;10445;50.216;7.912;2023-08-08T00:46:32;11.70;99.90
20574;DHT22;10445;50.216;7.912;2023-08-08T00:49:00;11.70;99.90
20574;DHT22;10445;50.216;7.912;2023-08-08T00:51:29;11.70;99.90
20574;DHT22;10445;50.216;7.912;2023-08-08T00:53:59;11.60;99.90
20574;DHT22;10445;50.216;7.912;2023-08-08T00:56:28;11.60;99.90
20574;DHT22;10445;50.216;7.912;2023-08-08T00:58:57;11.60;99.90
20574;DHT22;10445;50.216;7.912;2023-08-08T01:01:25;11.60;99.90
20574;DHT22;10445;50.216;7.912;2023-08-08T01:03:54;11.50;99.90
20574;DHT22;10445;50.216;7.912;2023-08-08T01:06:31;11.50;99.90
20574;DHT22;10445;50.216;7.912;2023-08-08T01:09:11;11.50;99.90
20574;DHT22;10445;50.216;7.912;2023-08-08T01:11:42;11.50;99.90
20574;DHT22;10445;50.216;7.912;2023-08-08T01:14:11;11.50;99.90
20574;DHT22;10445;50.216;7.912;2023-08-08T01:16:39;11.40;99.90
20574;DHT22;10445;50.216;7.912;2023-08-08T01:19:13;11.40;99.90
20574;DHT22;10445;50.216;7.912;2023-08-08T01:21:44;11.40;99.90
20574;DHT22;10445;50.216;7.912;2023-08-08T01:24:18;11.40;99.90
20574;DHT22;10445;50.216;7.912;2023-08-08T01:26:47;11.40;99.90
20574;DHT22;10445;50.216;7.912;2023-08-08T01:29:16;11.40;99.90
20574;DHT22;10445;50.216;7.912;2023-08-08T01:31:44;11.30;99.90
20574;DHT22;10445;50.216;7.912;2023-08-08T01:34:13;11.30;99.90
20574;DHT22;10445;50.216;7.912;2023-08-08T01:36:49;11.30;99.90
20574;DHT22;10445;50.216;7.912;2023-08-08T01:39:25;11.30;99.90
20574;DHT22;10445;50.216;7.912;2023-08-08T01:41:55;11.30;99.90
20574;DHT22;10445;50.216;7.912;2023-08-08T01:44:25;11.30;99.90
20574;DHT22;10445;50.216;7.912;2023-08-08T01:46:55;11.30;99.90
20574;DHT22;10445;50.216;7.912;2023-08-08T01:49:24;11.30;99.90
20574;DHT22;10445;50.216;7.912;2023-08-08T01:51:52;11.30;99.90
20574;DHT22;10445;50.216;7.912;2023-08-08T01:54:22;11.30;99.90
20574;DHT22;10445;50.216;7.912;2023-08-08T01:56:51;11.30;99.90
20574;DHT22;10445;50.216;7.912;2023-08-08T01:59:19;11.30;99.90
20574;DHT22;10445;50.216;7.912;2023-08-08T02:01:48;11.20;99.90
20574;DHT22;10445;50.216;7.912;2023-08-08T02:04:16;11.30;99.90
20574;DHT22;10445;50.216;7.912;2023-08-08T02:06:45;11.30;99.90
20574;DHT22;10445;50.216;7.912;2023-08-08T02:09:13;11.30;99.90
20574;DHT22;10445;50.216;7.912;2023-08-08T02:11:44;11.30;99.90
20574;DHT22;10445;50.216;7.912;2023-08-08T02:14:12;11.30;99.90
20574;DHT22;10445;50.216;7.912;2023-08-08T02:16:41;11.40;99.90
20574;DHT22;10445;50.216;7.912;2023-08-08T02:19:09;11.40;99.90
20574;DHT22;10445;50.216;7.912;2023-08-08T02:21:38;11.40;99.90
20574;DHT22;10445;50.216;7.912;2023-08-08T02:24:06;11.40;99.90
20574;DHT22;10445;50.216;7.912;2023-08-08T02:26:35;11.40;99.90
20574;DHT22;10445;50.216;7.912;2023-08-08T02:29:05;11.40;99.90
20574;DHT22;10445;50.216;7.912;2023-08-08T02:31:33;11.40;99.90
20574;DHT22;10445;50.216;7.912;2023-08-08T02:34:02;11.40;99.90
20574;DHT22;10445;50.216;7.912;2023-08-08T02:36:30;11.30;99.90
20574;DHT22;10445;50.216;7.912;2023-08-08T02:39:00;11.40;99.90
20574;DHT22;10445;50.216;7.912;2023-08-08T02:41:28;11.30;99.90
20574;DHT22;10445;50.216;7.912;2023-08-08T02:43:57;11.40;99.90
20574;DHT22;10445;50.216;7.912;2023-08-08T02:46:26;11.40;99.90
20574;DHT22;10445;50.216;7.912;2023-08-08T02:48:55;11.40;99.90
20574;DHT22;10445;50.216;7.912;2023-08-08T02:51:23;11.40;99.90
20574;DHT22;10445;50.216;7.912;2023-08-08T02:53:52;11.40;99.90
20574;DHT22;10445;50.216;7.912;2023-08-08T02:56:20;11.40;99.90
20574;DHT22;10445;50.216;7.912;2023-08-08T02:58:49;11.40;99.90
20574;DHT22;10445;50.216;7.912;2023-08-08T03:01:17;11.40;99.90
20574;DHT22;10445;50.216;7.912;2023-08-08T03:03:47;11.40;99.90
20574;DHT22;10445;50.216;7.912;2023-08-08T03:06:15;11.40;99.90
20574;DHT22;10445;50.216;7.912;2023-08-08T03:08:44;11.40;99.90
20574;DHT22;10445;50.216;7.912;2023-08-08T03:11:12;11.40;99.90
20574;DHT22;10445;50.216;7.912;2023-08-08T03:13:41;11.40;99.90
20574;DHT22;10445;50.216;7.912;2023-08-08T03:16:09;11.40;99.90
20574;DHT22;10445;50.216;7.912;2023-08-08T03:18:38;11.40;99.90
20574;DHT22;10445;50.216;7.912;2023-08-08T03:21:07;11.40;99.90
20574;DHT22;10445;50.216;7.912;2023-08-08T03:23:36;11.30;99.90
20574;DHT22;10445;50.216;7.912;2023-08-08T03:26:04;11.30;99.90
20574;DHT22;10445;50.216;7.912;2023-08-08T03:28:33;11.30;99.90
20574;DHT22;10445;50.216;7.912;2023-08-08T03:31:01;11.30;99.90
20574;DHT22;10445;50.216;7.912;2023-08-08T03:33:30;11.30;99.90
20574;DHT22;10445;50.216;7.912;2023-08-08T03:35:58;11.30;99.90
20574;DHT22;10445;50.216;7.912;2023-08-08T03:38:28;11.30;99.90
20574;DHT22;10445;50.216;7.912;2023-08-08T03:40:57;11.30;99.90
20574;DHT22;10445;50.216;7.912;2023-08-08T03:43:25;11.20;99.90
20574;DHT22;10445;50.216;7.912;2023-08-08T03:45:53;11.20;99.90
20574;DHT22;10445;50.216;7.912;2023-08-08T03:48:22;11.10;99.90
20574;DHT22;10445;50.216;7.912;2023-08-08T03:50:50;11.10;99.90
20574;DHT22;10445;50.216;7.912;2023-08-08T03:53:19;11.10;99.90
20574;DHT22;10445;50.216;7.912;2023-08-08T03:55:49;11.10;99.90
20574;DHT22;10445;50.216;7.912;2023-08-08T03:58:17;11.00;99.90
20574;DHT22;10445;50.216;7.912;2023-08-08T04:00:46;11.00;99.90
20574;DHT22;10445;50.216;7.912;2023-08-08T04:03:16;10.90;99.90
20574;DHT22;10445;50.216;7.912;2023-08-08T04:05:45;10.90;99.90
20574;DHT22;10445;50.216;7.912;2023-08-08T04:08:14;10.90;99.90
20574;DHT22;10445;50.216;7.912;2023-08-08T04:10:43;10.80;99.90
20574;DHT22;10445;50.216;7.912;2023-08-08T04:13:13;10.80;99.90
20574;DHT22;10445;50.216;7.912;2023-08-08T04:15:41;10.80;99.90
20574;DHT22;10445;50.216;7.912;2023-08-08T04:18:10;10.80;99.90
20574;DHT22;10445;50.216;7.912;2023-08-08T04:20:38;10.80;99.90
20574;DHT22;10445;50.216;7.912;2023-08-08T04:23:07;10.80;99.90
20574;DHT22;10445;50.216;7.912;2023-08-08T04:25:35;10.70;99.90
20574;DHT22;10445;50.216;7.912;2023-08-08T04:28:04;10.70;99.90
20574;DHT22;10445;50.216;7.912;2023-08-08T04:30:34;10.70;99.90
20574;DHT22;10445;50.216;7.912;2023-08-08T04:33:03;10.70;99.90
20574;DHT22;10445;50.216;7.912;2023-08-08T04:35:32;10.70;99.90
20574;DHT22;10445;50.216;7.912;2023-08-08T04:38:00;10.70;99.90
20574;DHT22;10445;50.216;7.912;2023-08-08T04:40:29;10.70;99.90
20574;DHT22;10445;50.216;7.912;2023-08-08T04:42:58;10.70;99.90
20574;DHT22;10445;50.216;7.912;2023-08-08T04:45:26;10.70;99.90
20574;DHT22;10445;50.216;7.912;2023-08-08T04:47:57;10.70;99.90
20574;DHT22;10445;50.216;7.912;2023-08-08T04:50:26;10.70;99.90
20574;DHT22;10445;50.216;7.912;2023-08-08T04:52:55;10.70;99.90
20574;DHT22;10445;50.216;7.912;2023-08-08T04:55:23;10.70;99.90
20574;DHT22;10445;50.216;7.912;2023-08-08T04:57:52;10.70;99.90
20574;DHT22;10445;50.216;7.912;2023-08-08T05:00:20;10.70;99.90
20574;DHT22;10445;50.216;7.912;2023-08-08T05:02:49;10.70;99.90
20574;DHT22;10445;50.216;7.912;2023-08-08T05:05:19;10.80;99.90
20574;DHT22;10445;50.216;7.912;2023-08-08T05:07:47;10.70;99.90
20574;DHT22;10445;50.216;7.912;2023-08-08T05:10:16;10.80;99.90
20574;DHT22;10445;50.216;7.912;2023-08-08T05:12:44;10.80;99.90
20574;DHT22;10445;50.216;7.912;2023-08-08T05:15:13;10.90;99.90
20574;DHT22;10445;50.216;7.912;2023-08-08T05:17:41;10.90;99.90
20574;DHT22;10445;50.216;7.912;2023-08-08T05:20:11;10.90;99.90
20574;DHT22;10445;50.216;7.912;2023-08-08T05:22:40;11.00;99.90
20574;DHT22;10445;50.216;7.912;2023-08-08T05:25:09;11.00;99.90
20574;DHT22;10445;50.216;7.912;2023-08-08T05:27:38;11.00;99.90
20574;DHT22;10445;50.216;7.912;2023-08-08T05:30:07;11.10;99.90
20574;DHT22;10445;50.216;7.912;2023-08-08T05:32:35;11.10;99.90
20574;DHT22;10445;50.216;7.912;2023-08-08T05:35:05;11.20;99.90
20574;DHT22;10445;50.216;7.912;2023-08-08T05:37:34;11.30;99.90
20574;DHT22;10445;50.216;7.912;2023-08-08T05:40:04;11.30;99.90
20574;DHT22;10445;50.216;7.912;2023-08-08T05:42:33;11.40;99.90
20574;DHT22;10445;50.216;7.912;2023-08-08T05:45:02;11.40;99.90
20574;DHT22;10445;50.216;7.912;2023-08-08T05:47:31;11.50;99.90
20574;DHT22;10445;50.216;7.912;2023-08-08T05:50:00;11.60;99.90
20574;DHT22;10445;50.216;7.912;2023-08-08T05:52:29;11.70;99.90
20574;DHT22;10445;50.216;7.912;2023-08-08T05:54:58;11.80;99.90
20574;DHT22;10445;50.216;7.912;2023-08-08T05:57:28;11.90;99.90
20574;DHT22;10445;50.216;7.912;2023-08-08T05:59:57;12.00;99.80
20574;DHT22;10445;50.216;7.912;2023-08-08T06:02:29;12.20;98.00
20574;DHT22;10445;50.216;7.912;2023-08-08T06:04:57;12.30;98.20
20574;DHT22;10445;50.216;7.912;2023-08-08T06:07:26;12.30;98.60
20574;DHT22;10445;50.216;7.912;2023-08-08T06:09:54;12.50;96.50
20574;DHT22;10445;50.216;7.912;2023-08-08T06:12:22;12.80;92.40
20574;DHT22;10445;50.216;7.912;2023-08-08T06:14:52;13.00;90.50
20574;DHT22;10445;50.216;7.912;2023-08-08T06:17:21;13.10;86.10
20574;DHT22;10445;50.216;7.912;2023-08-08T06:19:50;13.20;85.90
20574;DHT22;10445;50.216;7.912;2023-08-08T06:22:20;13.30;83.10
20574;DHT22;10445;50.216;7.912;2023-08-08T06:24:50;13.40;82.20
20574;DHT22;10445;50.216;7.912;2023-08-08T06:27:19;13.40;82.10
20574;DHT22;10445;50.216;7.912;2023-08-08T06:29:47;13.30;83.50
20574;DHT22;10445;50.216;7.912;2023-08-08T06:32:17;13.40;84.60
20574;DHT22;10445;50.216;7.912;2023-08-08T06:34:45;13.50;85.40
20574;DHT22;10445;50.216;7.912;2023-08-08T06:37:14;13.60;84.80
20574;DHT22;10445;50.216;7.912;2023-08-08T06:39:42;13.60;83.00
20574;DHT22;10445;50.216;7.912;2023-08-08T06:42:11;13.70;82.60
20574;DHT22;10445;50.216;7.912;2023-08-08T06:44:43;13.80;82.10
20574;DHT22;10445;50.216;7.912;2023-08-08T06:47:12;13.90;81.40
20574;DHT22;10445;50.216;7.912;2023-08-08T06:49:41;13.90;77.60
20574;DHT22;10445;50.216;7.912;2023-08-08T06:52:10;14.00;77.00
20574;DHT22;10445;50.216;7.912;2023-08-08T06:54:38;14.10;76.40
20574;DHT22;10445;50.216;7.912;2023-08-08T06:57:07;14.20;73.70
20574;DHT22;10445;50.216;7.912;2023-08-08T06:59:35;14.20;72.40
20574;DHT22;10445;50.216;7.912;2023-08-08T07:02:04;14.20;73.30
20574;DHT22;10445;50.216;7.912;2023-08-08T07:04:33;14.30;72.10
20574;DHT22;10445;50.216;7.912;2023-08-08T07:07:03;14.40;72.80
20574;DHT22;10445;50.216;7.912;2023-08-08T07:09:31;14.50;71.00
20574;DHT22;10445;50.216;7.912;2023-08-08T07:12:01;14.50;70.00
20574;DHT22;10445;50.216;7.912;2023-08-08T07:14:30;14.60;70.20
20574;DHT22;10445;50.216;7.912;2023-08-08T07:16:59;14.80;70.10
20574;DHT22;10445;50.216;7.912;2023-08-08T07:19:33;14.80;69.70
20574;DHT22;10445;50.216;7.912;2023-08-08T07:22:04;15.00;67.30
20574;DHT22;10445;50.216;7.912;2023-08-08T07:24:33;15.10;65.80
20574;DHT22;10445;50.216;7.912;2023-08-08T07:27:01;15.20;64.90
20574;DHT22;10445;50.216;7.912;2023-08-08T07:29:30;15.30;66.70
20574;DHT22;10445;50.216;7.912;2023-08-08T07:31:59;15.30;62.10
20574;DHT22;10445;50.216;7.912;2023-08-08T07:34:30;15.30;62.40
20574;DHT22;10445;50.216;7.912;2023-08-08T07:36:59;15.20;62.10
20574;DHT22;10445;50.216;7.912;2023-08-08T08:04:29;15.40;61.70
20574;DHT22;10445;50.216;7.912;2023-08-08T08:06:58;15.30;65.10
20574;DHT22;10445;50.216;7.912;2023-08-08T08:09:26;15.20;64.90
20574;DHT22;10445;50.216;7.912;2023-08-08T08:11:55;15.00;68.10
20574;DHT22;10445;50.216;7.912;2023-08-08T08:14:24;15.00;71.70
20574;DHT22;10445;50.216;7.912;2023-08-08T08:16:52;14.90;72.20
20574;DHT22;10445;50.216;7.912;2023-08-08T08:19:21;14.90;74.60
20574;DHT22;10445;50.216;7.912;2023-08-08T08:21:51;14.90;76.70
20574;DHT22;10445;50.216;7.912;2023-08-08T08:24:20;15.10;77.70
20574;DHT22;10445;50.216;7.912;2023-08-08T08:26:48;15.20;77.40
20574;DHT22;10445;50.216;7.912;2023-08-08T08:29:16;15.50;77.00
20574;DHT22;10445;50.216;7.912;2023-08-08T08:31:45;15.60;75.20
20574;DHT22;10445;50.216;7.912;2023-08-08T08:34:13;15.50;70.30
20574;DHT22;10445;50.216;7.912;2023-08-08T08:36:42;15.40;71.70
20574;DHT22;10445;50.216;7.912;2023-08-08T08:39:11;15.40;71.40
20574;DHT22;10445;50.216;7.912;2023-08-08T08:41:40;15.30;74.20
20574;DHT22;10445;50.216;7.912;2023-08-08T08:44:09;15.30;74.70
20574;DHT22;10445;50.216;7.912;2023-08-08T08:46:38;15.50;77.50
20574;DHT22;10445;50.216;7.912;2023-08-08T08:49:07;15.60;70.70
20574;DHT22;10445;50.216;7.912;2023-08-08T08:51:36;15.70;71.30
20574;DHT22;10445;50.216;7.912;2023-08-08T08:54:05;15.70;70.40
20574;DHT22;10445;50.216;7.912;2023-08-08T08:56:35;15.60;67.90
20574;DHT22;10445;50.216;7.912;2023-08-08T08:59:04;15.50;70.70
20574;DHT22;10445;50.216;7.912;2023-08-08T09:01:33;15.50;69.30
20574;DHT22;10445;50.216;7.912;2023-08-08T09:04:02;15.60;70.60
20574;DHT22;10445;50.216;7.912;2023-08-08T09:06:31;15.70;69.90
20574;DHT22;10445;50.216;7.912;2023-08-08T09:09:00;15.60;70.00
20574;DHT22;10445;50.216;7.912;2023-08-08T09:11:46;15.50;64.30
20574;DHT22;10445;50.216;7.912;2023-08-08T09:14:17;15.50;67.70
20574;DHT22;10445;50.216;7.912;2023-08-08T09:16:45;15.40;67.70
20574;DHT22;10445;50.216;7.912;2023-08-08T09:19:14;15.60;73.80
20574;DHT22;10445;50.216;7.912;2023-08-08T09:21:44;15.70;66.80
20574;DHT22;10445;50.216;7.912;2023-08-08T09:24:13;15.90;75.40
20574;DHT22;10445;50.216;7.912;2023-08-08T09:26:41;16.00;61.30
20574;DHT22;10445;50.216;7.912;2023-08-08T09:29:13;16.00;64.20
20574;DHT22;10445;50.216;7.912;2023-08-08T09:31:42;16.30;63.30
20574;DHT22;10445;50.216;7.912;2023-08-08T09:34:10;16.40;59.00
20574;DHT22;10445;50.216;7.912;2023-08-08T09:36:40;16.50;58.40
20574;DHT22;10445;50.216;7.912;2023-08-08T09:39:09;16.50;52.70
20574;DHT22;10445;50.216;7.912;2023-08-08T09:41:39;16.40;53.00
20574;DHT22;10445;50.216;7.912;2023-08-08T09:44:08;16.40;50.80
20574;DHT22;10445;50.216;7.912;2023-08-08T09:46:39;16.30;42.20
20574;DHT22;10445;50.216;7.912;2023-08-08T09:49:09;16.30;45.50
20574;DHT22;10445;50.216;7.912;2023-08-08T09:51:38;16.40;51.50
20574;DHT22;10445;50.216;7.912;2023-08-08T09:54:07;16.50;44.30
20574;DHT22;10445;50.216;7.912;2023-08-08T09:56:37;16.50;41.60
20574;DHT22;10445;50.216;7.912;2023-08-08T09:59:06;16.60;46.20
20574;DHT22;10445;50.216;7.912;2023-08-08T10:01:36;16.70;34.00
20574;DHT22;10445;50.216;7.912;2023-08-08T10:04:07;16.70;31.70
20574;DHT22;10445;50.216;7.912;2023-08-08T10:06:36;16.60;24.40
20574;DHT22;10445;50.216;7.912;2023-08-08T10:09:05;16.60;37.10
20574;DHT22;10445;50.216;7.912;2023-08-08T10:11:34;16.70;39.50
20574;DHT22;10445;50.216;7.912;2023-08-08T10:14:03;16.70;24.10
20574;DHT22;10445;50.216;7.912;2023-08-08T10:16:32;16.60;24.40
20574;DHT22;10445;50.216;7.912;2023-08-08T10:19:03;16.40;24.60
20574;DHT22;10445;50.216;7.912;2023-08-08T10:21:34;16.40;31.80
20574;DHT22;10445;50.216;7.912;2023-08-08T10:24:04;16.50;36.10
20574;DHT22;10445;50.216;7.912;2023-08-08T10:26:33;16.60;31.60
20574;DHT22;10445;50.216;7.912;2023-08-08T10:29:02;16.60;28.00
20574;DHT22;10445;50.216;7.912;2023-08-08T10:31:34;16.50;24.00
20574;DHT22;10445;50.216;7.912;2023-08-08T10:34:04;16.50;31.00
20574;DHT22;10445;50.216;7.912;2023-08-08T10:36:48;16.60;32.20
20574;DHT22;10445;50.216;7.912;2023-08-08T10:39:17;16.60;34.60
20574;DHT22;10445;50.216;7.912;2023-08-08T10:41:47;16.60;23.40
20574;DHT22;10445;50.216;7.912;2023-08-08T10:44:25;16.60;30.60
20574;DHT22;10445;50.216;7.912;2023-08-08T10:46:54;16.60;29.50
20574;DHT22;10445;50.216;7.912;2023-08-08T10:49:26;16.70;34.60
20574;DHT22;10445;50.216;7.912;2023-08-08T10:52:02;16.80;30.00
20574;DHT22;10445;50.216;7.912;2023-08-08T10:54:31;16.70;28.20
20574;DHT22;10445;50.216;7.912;2023-08-08T10:57:01;16.60;27.50
20574;DHT22;10445;50.216;7.912;2023-08-08T10:59:36;16.60;27.70
20574;DHT22;10445;50.216;7.912;2023-08-08T11:02:07;16.60;23.00
20574;DHT22;10445;50.216;7.912;2023-08-08T11:04:36;16.60;23.20
20574;DHT22;10445;50.216;7.912;2023-08-08T11:07:07;16.70;28.70
20574;DHT22;10445;50.216;7.912;2023-08-08T11:09:37;16.90;31.30
20574;DHT22;10445;50.216;7.912;2023-08-08T11:12:12;17.00;26.30
20574;DHT22;10445;50.216;7.912;2023-08-08T11:14:42;17.10;29.70
20574;DHT22;10445;50.216;7.912;2023-08-08T11:17:11;17.30;24.50
20574;DHT22;10445;50.216;7.912;2023-08-08T11:19:40;17.40;27.40
20574;DHT22;10445;50.216;7.912;2023-08-08T11:22:11;17.30;22.00
20574;DHT22;10445;50.216;7.912;2023-08-08T11:24:39;17.30;23.40
20574;DHT22;10445;50.216;7.912;2023-08-08T11:27:10;17.40;21.40
20574;DHT22;10445;50.216;7.912;2023-08-08T11:29:38;17.40;17.40
20574;DHT22;10445;50.216;7.912;2023-08-08T11:32:07;17.40;19.70
20574;DHT22;10445;50.216;7.912;2023-08-08T11:34:36;17.50;19.90
20574;DHT22;10445;50.216;7.912;2023-08-08T11:37:06;17.60;12.90
20574;DHT22;10445;50.216;7.912;2023-08-08T11:39:37;17.50;16.60
20574;DHT22;10445;50.216;7.912;2023-08-08T11:42:06;17.50;14.50
20574;DHT22;10445;50.216;7.912;2023-08-08T11:44:35;17.50;11.70
20574;DHT22;10445;50.216;7.912;2023-08-08T11:47:04;17.50;15.80
20574;DHT22;10445;50.216;7.912;2023-08-08T11:49:40;17.50;18.30
20574;DHT22;10445;50.216;7.912;2023-08-08T11:52:09;17.70;19.40
20574;DHT22;10445;50.216;7.912;2023-08-08T11:54:38;18.00;15.70
20574;DHT22;10445;50.216;7.912;2023-08-08T11:57:09;18.20;14.60
20574;DHT22;10445;50.216;7.912;2023-08-08T11:59:37;18.30;13.30
20574;DHT22;10445;50.216;7.912;2023-08-08T12:02:06;18.20;6.80
20574;DHT22;10445;50.216;7.912;2023-08-08T12:04:34;18.10;6.70
20574;DHT22;10445;50.216;7.912;2023-08-08T12:07:03;17.90;9.90
20574;DHT22;10445;50.216;7.912;2023-08-08T12:09:32;18.00;7.40
20574;DHT22;10445;50.216;7.912;2023-08-08T12:12:02;17.90;8.80
20574;DHT22;10445;50.216;7.912;2023-08-08T12:18:23;17.60;9.90
20574;DHT22;10445;50.216;7.912;2023-08-08T12:20:52;17.40;11.10
20574;DHT22;10445;50.216;7.912;2023-08-08T12:23:20;17.10;9.60
20574;DHT22;10445;50.216;7.912;2023-08-08T12:25:49;16.90;10.20
20574;DHT22;10445;50.216;7.912;2023-08-08T12:28:19;16.70;12.60
20574;DHT22;10445;50.216;7.912;2023-08-08T12:30:47;16.50;13.40
20574;DHT22;10445;50.216;7.912;2023-08-08T12:33:16;16.50;12.50
20574;DHT22;10445;50.216;7.912;2023-08-08T12:35:47;16.50;16.30
20574;DHT22;10445;50.216;7.912;2023-08-08T12:38:16;16.60;16.30
20574;DHT22;10445;50.216;7.912;2023-08-08T12:40:44;16.80;14.10
20574;DHT22;10445;50.216;7.912;2023-08-08T12:43:13;17.00;10.10
20574;DHT22;10445;50.216;7.912;2023-08-08T12:45:46;17.10;8.80
20574;DHT22;10445;50.216;7.912;2023-08-08T12:48:14;17.00;7.70
20574;DHT22;10445;50.216;7.912;2023-08-08T12:50:43;16.90;9.10
20574;DHT22;10445;50.216;7.912;2023-08-08T12:53:11;17.00;9.00
20574;DHT22;10445;50.216;7.912;2023-08-08T12:55:40;17.00;11.40
20574;DHT22;10445;50.216;7.912;2023-08-08T12:58:08;17.10;11.00
20574;DHT22;10445;50.216;7.912;2023-08-08T13:00:37;17.20;7.00
20574;DHT22;10445;50.216;7.912;2023-08-08T13:03:07;17.20;8.70
20574;DHT22;10445;50.216;7.912;2023-08-08T13:05:36;17.30;7.50
20574;DHT22;10445;50.216;7.912;2023-08-08T13:08:05;17.40;8.00
20574;DHT22;10445;50.216;7.912;2023-08-08T13:10:34;17.50;6.10
20574;DHT22;10445;50.216;7.912;2023-08-08T13:13:02;17.50;3.50
20574;DHT22;10445;50.216;7.912;2023-08-08T13:15:31;17.40;8.10
20574;DHT22;10445;50.216;7.912;2023-08-08T13:17:59;17.30;9.80
20574;DHT22;10445;50.216;7.912;2023-08-08T13:20:29;17.20;10.80
20574;DHT22;10445;50.216;7.912;2023-08-08T13:22:58;17.10;10.30
20574;DHT22;10445;50.216;7.912;2023-08-08T13:25:26;17.10;10.10
20574;DHT22;10445;50.216;7.912;2023-08-08T13:27:55;17.00;10.00
20574;DHT22;10445;50.216;7.912;2023-08-08T13:30:23;17.00;11.50
20574;DHT22;10445;50.216;7.912;2023-08-08T13:32:52;17.00;10.30
20574;DHT22;10445;50.216;7.912;2023-08-08T13:35:21;17.10;9.60
20574;DHT22;10445;50.216;7.912;2023-08-08T13:37:51;17.10;6.90
20574;DHT22;10445;50.216;7.912;2023-08-08T13:40:21;17.10;5.30
20574;DHT22;10445;50.216;7.912;2023-08-08T13:42:50;17.40;8.40
20574;DHT22;10445;50.216;7.912;2023-08-08T13:45:19;17.60;4.20
20574;DHT22;10445;50.216;7.912;2023-08-08T13:47:49;17.70;3.00
20574;DHT22;10445;50.216;7.912;2023-08-08T13:50:18;17.70;3.80
20574;DHT22;10445;50.216;7.912;2023-08-08T13:52:46;17.60;2.30
20574;DHT22;10445;50.216;7.912;2023-08-08T13:55:16;17.50;4.30
20574;DHT22;10445;50.216;7.912;2023-08-08T13:57:45;17.30;3.80
20574;DHT22;10445;50.216;7.912;2023-08-08T14:00:13;17.10;5.30
20574;DHT22;10445;50.216;7.912;2023-08-08T14:02:43;17.10;6.90
20574;DHT22;10445;50.216;7.912;2023-08-08T14:05:12;17.10;10.20
20574;DHT22;10445;50.216;7.912;2023-08-08T14:07:40;17.10;9.10
20574;DHT22;10445;50.216;7.912;2023-08-08T14:10:09;17.00;6.40
20574;DHT22;10445;50.216;7.912;2023-08-08T14:12:40;17.00;5.90
20574;DHT22;10445;50.216;7.912;2023-08-08T14:15:09;16.90;6.80
20574;DHT22;10445;50.216;7.912;2023-08-08T14:17:48;16.80;8.60
20574;DHT22;10445;50.216;7.912;2023-08-08T14:35:02;16.30;15.40
20574;DHT22;10445;50.216;7.912;2023-08-08T14:37:40;16.40;15.40
20574;DHT22;10445;50.216;7.912;2023-08-08T14:40:58;16.30;14.80
20574;DHT22;10445;50.216;7.912;2023-08-08T14:44:00;16.40;12.40
20574;DHT22;10445;50.216;7.912;2023-08-08T14:47:10;16.30;13.20
20574;DHT22;10445;50.216;7.912;2023-08-08T14:50:25;16.40;13.40
20574;DHT22;10445;50.216;7.912;2023-08-08T14:52:54;16.40;14.70
20574;DHT22;10445;50.216;7.912;2023-08-08T14:55:27;16.40;13.40
20574;DHT22;10445;50.216;7.912;2023-08-08T14:57:56;16.50;15.90
20574;DHT22;10445;50.216;7.912;2023-08-08T15:00:24;16.60;15.10
20574;DHT22;10445;50.216;7.912;2023-08-08T15:02:53;16.50;18.10
20574;DHT22;10445;50.216;7.912;2023-08-08T15:13:47;17.00;21.20
20574;DHT22;10445;50.216;7.912;2023-08-08T15:16:16;17.30;24.10
20574;DHT22;10445;50.216;7.912;2023-08-08T15:18:44;17.40;19.30
20574;DHT22;10445;50.216;7.912;2023-08-08T15:21:12;17.30;17.90
20574;DHT22;10445;50.216;7.912;2023-08-08T15:23:46;17.20;19.00
20574;DHT22;10445;50.216;7.912;2023-08-08T15:26:15;17.20;21.30
20574;DHT22;10445;50.216;7.912;2023-08-08T15:28:47;17.30;19.00
20574;DHT22;10445;50.216;7.912;2023-08-08T15:31:16;17.30;14.60
20574;DHT22;10445;50.216;7.912;2023-08-08T15:33:44;17.30;16.50
20574;DHT22;10445;50.216;7.912;2023-08-08T15:36:13;17.30;12.80
20574;DHT22;10445;50.216;7.912;2023-08-08T15:38:41;17.30;13.10
20574;DHT22;10445;50.216;7.912;2023-08-08T15:41:10;17.20;10.90
20574;DHT22;10445;50.216;7.912;2023-08-08T15:43:38;17.10;12.80
20574;DHT22;10445;50.216;7.912;2023-08-08T15:46:08;17.10;13.50
20574;DHT22;10445;50.216;7.912;2023-08-08T15:48:39;17.00;12.20
20574;DHT22;10445;50.216;7.912;2023-08-08T15:51:07;17.10;12.90
20574;DHT22;10445;50.216;7.912;2023-08-08T15:53:35;17.10;13.80
20574;DHT22;10445;50.216;7.912;2023-08-08T15:56:04;17.10;13.90
20574;DHT22;10445;50.216;7.912;2023-08-08T15:58:34;17.10;16.10
20574;DHT22;10445;50.216;7.912;2023-08-08T16:01:02;17.10;14.30
20574;DHT22;10445;50.216;7.912;2023-08-08T16:03:32;17.10;13.70
20574;DHT22;10445;50.216;7.912;2023-08-08T16:06:01;17.00;15.00
20574;DHT22;10445;50.216;7.912;2023-08-08T16:08:30;17.00;14.60
20574;DHT22;10445;50.216;7.912;2023-08-08T16:10:58;16.90;14.80
20574;DHT22;10445;50.216;7.912;2023-08-08T16:13:27;16.90;16.10
20574;DHT22;10445;50.216;7.912;2023-08-08T16:15:55;16.90;16.80
20574;DHT22;10445;50.216;7.912;2023-08-08T16:18:23;16.80;19.50
20574;DHT22;10445;50.216;7.912;2023-08-08T16:20:53;16.90;19.60
20574;DHT22;10445;50.216;7.912;2023-08-08T16:23:22;16.90;19.90
20574;DHT22;10445;50.216;7.912;2023-08-08T16:25:50;16.90;21.10
20574;DHT22;10445;50.216;7.912;2023-08-08T16:28:18;16.90;21.80
20574;DHT22;10445;50.216;7.912;2023-08-08T16:30:47;16.80;24.10
20574;DHT22;10445;50.216;7.912;2023-08-08T16:33:15;16.80;23.30
20574;DHT22;10445;50.216;7.912;2023-08-08T16:35:45;16.60;24.90
20574;DHT22;10445;50.216;7.912;2023-08-08T16:38:14;16.60;25.40
20574;DHT22;10445;50.216;7.912;2023-08-08T16:40:43;16.60;29.00